Vision of The Seas — C6SE8 — position and weather

sailwx.info

Track history (hours):
 
Tides and Currents Weather Stations Pressure Air Temp Water Temp Dewpoint Dewpoint Depression Visibility Wind Speed Wind Dir Waves Ship Positions

Vision of The Seas

Operator: Royal Caribbean Cruises Ltd

Last reported at 2018-May-22 21:00 UTC. Time now 2018-May-23 11:10 UTC.
Position N 36°06' E 023°24'.

Type: Passenger vessel. MMSI: 311321000.

Wind from 010 at 10 knots

Barometer 1013.0 mb
Air temperature 20.0 ° C
Dewpoint 20.0 ° C
Water temperature 20.0 ° C

Date/timePositionNaut miles runAvg speedWind from/ knotsBaromVisibWave heightAir tempDewpointWater temp
2018-May-22 21:00N 36°06' E 023°24'4414.7 010 / 101013.0 20.020.020.0
2018-May-22 18:00N 36°12' E 024°18'62 2.7 040 / 101012.010.8 21.021.021.0
2018-May-21 18:48N 37°06' E 024°57'3 8.7
2018-May-21 18:30N 37°08' E 024°58'1 2.8
2018-May-21 18:01N 37°09' E 024°59'2 4.7
2018-May-21 17:30N 37°11' E 025°00'5 9.8
2018-May-21 17:00N 37°16' E 025°03'510.7
2018-May-21 16:30N 37°21' E 025°06'510.3
2018-May-21 16:00N 37°25' E 025°09'5 9.1
2018-May-21 15:30N 37°27' E 025°14'4 5.2
2018-May-21 14:43N 37°28' E 025°19'0 0.0
2018-May-21 14:25N 37°28' E 025°19'0 0.0
2018-May-21 13:49N 37°28' E 025°19'0 0.0
2018-May-21 13:25N 37°28' E 025°19'0 0.0
2018-May-21 12:49N 37°28' E 025°19'0 0.0
2018-May-21 12:19N 37°28' E 025°19'0 0.0
2018-May-21 11:55N 37°28' E 025°19'0 0.0
2018-May-21 11:19N 37°28' E 025°19'0 0.0
2018-May-21 10:55N 37°28' E 025°19'0 0.0
2018-May-21 10:25N 37°28' E 025°19'0 0.0
2018-May-21 09:55N 37°28' E 025°19'0 0.0
2018-May-21 09:25N 37°28' E 025°19'0 0.0
2018-May-21 08:49N 37°28' E 025°19'0 0.0
2018-May-21 08:25N 37°28' E 025°19'0 0.0
2018-May-21 07:55N 37°28' E 025°19'0 0.0
2018-May-21 07:19N 37°28' E 025°19'0 0.0
2018-May-21 06:55N 37°28' E 025°19'0 0.0
2018-May-21 06:25N 37°28' E 025°19'0 0.0
2018-May-21 05:55N 37°28' E 025°19'0 0.0
2018-May-21 05:25N 37°28' E 025°19'0 0.0
2018-May-21 04:55N 37°28' E 025°19'0 0.0
2018-May-21 04:25N 37°28' E 025°19'0 0.0
2018-May-21 03:55N 37°28' E 025°19'0 0.0
2018-May-21 03:24N 37°28' E 025°19'1 3.3
2018-May-21 02:59N 37°27' E 025°18'511.0
2018-May-21 02:30N 37°27' E 025°11'1211.3
2018-May-21 01:29N 37°20' E 024°60'611.9
2018-May-21 01:00N 37°19' E 024°53'54 8.4
2018-May-20 18:32N 37°22' E 023°45'111.4
2018-May-20 18:28N 37°23' E 023°45'711.4
2018-May-20 17:52N 37°30' E 023°44'411.5
2018-May-20 17:30N 37°34' E 023°43'611.4
2018-May-20 17:01N 37°40' E 023°42'611.3
2018-May-20 16:30N 37°45' E 023°39'611.1
2018-May-20 16:00N 37°50' E 023°37'612.0
2018-May-20 15:31N 37°56' E 023°37'1 2.5
2018-May-20 15:00N 37°56' E 023°38'0 0.0
2018-May-20 14:30N 37°56' E 023°38'0 0.0
2018-May-20 14:00N 37°56' E 023°38'0 0.0
2018-May-20 13:30N 37°56' E 023°38'0 0.0
2018-May-20 13:00N 37°56' E 023°38'0 0.0
2018-May-20 12:30N 37°56' E 023°38'0 0.0
2018-May-20 12:00N 37°56' E 023°38'0 0.0
2018-May-20 11:30N 37°56' E 023°38'0 0.0
2018-May-20 11:00N 37°56' E 023°38'0 0.0
2018-May-20 10:30N 37°56' E 023°38'0 0.0
2018-May-20 10:00N 37°56' E 023°38'0 0.0
2018-May-20 09:30N 37°56' E 023°38'0 0.0
2018-May-20 09:00N 37°56' E 023°38'0 0.0
2018-May-20 08:30N 37°56' E 023°38'0 0.0
2018-May-20 08:00N 37°56' E 023°38'0 0.0
2018-May-20 07:30N 37°56' E 023°38'0 0.0
2018-May-20 07:00N 37°56' E 023°38'0 0.0
2018-May-20 06:30N 37°56' E 023°38'0 0.0
2018-May-20 06:00N 37°56' E 023°38'0 0.0
2018-May-20 05:30N 37°56' E 023°38'0 0.0
2018-May-20 05:00N 37°56' E 023°38'0 0.0
2018-May-20 04:30N 37°56' E 023°38'0 0.0
2018-May-20 04:00N 37°56' E 023°38'0 0.0
2018-May-20 03:30N 37°56' E 023°38'0 0.0
2018-May-20 03:00N 37°56' E 023°38'0 0.0
2018-May-20 02:30N 37°56' E 023°38'0 0.2
2018-May-20 02:00N 37°56' E 023°38'2 4.1
2018-May-20 01:30N 37°55' E 023°36'612.5
2018-May-20 01:00N 37°50' E 023°40'713.9
2018-May-20 00:30N 37°43' E 023°44'713.8
2018-May-20 00:00N 37°37' E 023°47'714.4
2018-May-19 23:30N 37°30' E 023°47'714.4
2018-May-19 23:00N 37°22' E 023°47'814.5
2018-May-19 22:29N 37°15' E 023°45'37612.4
2018-May-18 16:11N 37°45' E 015°53'1314.4
2018-May-18 15:15N 37°49' E 015°36'1014.0
2018-May-18 14:33N 37°58' E 015°33'115.9
2018-May-18 14:29N 37°59' E 015°33'817.2
2018-May-18 14:00N 38°07' E 015°35'816.3
2018-May-18 13:29N 38°15' E 015°39'714.2
2018-May-18 13:01N 38°22' E 015°39'815.7
2018-May-18 12:31N 38°29' E 015°35'815.5
2018-May-18 12:00N 38°36' E 015°31'815.3
2018-May-18 11:30N 38°43' E 015°27'815.5
2018-May-18 11:00N 38°50' E 015°23'14615.2
2018-May-18 01:24N 40°26' E 012°60'180 6.4
2018-May-16 21:22N 42°37' E 010°15'1616.6
2018-May-16 20:24N 42°48' E 009°59'717.6
2018-May-16 20:00N 42°55' E 010°02'917.7
2018-May-16 19:31N 43°04' E 010°03'918.0
2018-May-16 19:01N 43°13' E 010°05'917.8
2018-May-16 18:30N 43°22' E 010°06'715.3
2018-May-16 18:01N 43°29' E 010°08'713.4
2018-May-16 17:30N 43°32' E 010°17'1 2.8
2018-May-16 16:58N 43°34' E 010°18'0 0.0
2018-May-16 16:28N 43°34' E 010°18'0 0.0
2018-May-16 15:58N 43°34' E 010°18'0 0.0
2018-May-16 15:28N 43°34' E 010°18'0 0.0
2018-May-16 14:58N 43°34' E 010°18'0 0.0
2018-May-16 14:28N 43°34' E 010°18'0 0.0
2018-May-16 13:55N 43°34' E 010°18'0 0.0
2018-May-16 13:28N 43°34' E 010°18'0 0.0
2018-May-16 12:58N 43°34' E 010°18'0 0.0
2018-May-16 12:28N 43°34' E 010°18'0 0.0
2018-May-16 11:58N 43°34' E 010°18'0 0.0
2018-May-16 11:28N 43°34' E 010°18'0 0.0
2018-May-16 10:58N 43°34' E 010°18'0 0.0
2018-May-16 10:28N 43°34' E 010°18'0 0.0
2018-May-16 09:55N 43°34' E 010°18'0 0.0
2018-May-16 09:25N 43°34' E 010°18'0 0.0
2018-May-16 08:58N 43°34' E 010°18'0 0.0
2018-May-16 08:28N 43°34' E 010°18'0 0.0
2018-May-16 07:58N 43°34' E 010°18'0 0.0
2018-May-16 07:28N 43°34' E 010°18'0 0.0
2018-May-16 06:58N 43°34' E 010°18'0 0.0
2018-May-16 06:28N 43°34' E 010°18'0 0.0
2018-May-16 05:58N 43°34' E 010°18'0 0.0
2018-May-16 05:25N 43°34' E 010°18'0 0.1
2018-May-16 04:57N 43°33' E 010°18'0 0.0
2018-May-16 04:29N 43°33' E 010°18'2 4.7
2018-May-16 04:00N 43°32' E 010°16'611.6
2018-May-16 03:30N 43°29' E 010°09'713.1
2018-May-16 03:00N 43°31' E 010°00'713.2
2018-May-16 02:30N 43°32' E 009°51'713.2
2018-May-16 02:00N 43°32' E 009°42'713.2
2018-May-16 01:30N 43°32' E 009°33'713.0
2018-May-16 01:00N 43°32' E 009°24'612.8
2018-May-16 00:30N 43°32' E 009°15'612.9
2018-May-16 00:00N 43°32' E 009°06'612.9
2018-May-15 23:30N 43°31' E 008°58'612.9
2018-May-15 23:00N 43°31' E 008°49'613.0
2018-May-15 22:30N 43°30' E 008°40'612.9
2018-May-15 22:00N 43°30' E 008°31'713.1
2018-May-15 21:30N 43°30' E 008°22'4513.1
2018-May-15 18:04N 43°29' E 007°20'113.2
2018-May-15 18:00N 43°29' E 007°19'612.9
2018-May-15 17:30N 43°29' E 007°10'612.6
2018-May-15 17:00N 43°30' E 007°01'2 4.9
2018-May-15 16:30N 43°32' E 007°00'0 0.1
2018-May-15 15:59N 43°32' E 007°00'0 0.0
2018-May-15 15:29N 43°32' E 007°00'0 0.0
2018-May-15 14:59N 43°32' E 007°00'0 0.0
2018-May-15 14:29N 43°32' E 007°00'0 0.0
2018-May-15 13:59N 43°32' E 007°00'0 0.0
2018-May-15 13:20N 43°32' E 007°00'0 0.1
2018-May-15 12:50N 43°32' E 007°00'0 0.1
2018-May-15 12:20N 43°32' E 007°00'0 0.0
2018-May-15 11:50N 43°32' E 007°00'0 0.0
2018-May-15 11:23N 43°32' E 007°00'0 0.1
2018-May-15 10:56N 43°32' E 007°00'0 0.1
2018-May-15 10:23N 43°32' E 007°00'0 0.0
2018-May-15 09:56N 43°32' E 007°00'0 0.0
2018-May-15 09:26N 43°32' E 007°00'0 0.1
2018-May-15 08:59N 43°32' E 007°00'0 0.0
2018-May-15 08:29N 43°32' E 007°00'0 0.1
2018-May-15 07:56N 43°32' E 007°00'0 0.1
2018-May-15 07:26N 43°32' E 007°00'0 0.0
2018-May-15 06:56N 43°32' E 007°01'0 0.0
2018-May-15 06:29N 43°32' E 007°01'0 0.1
2018-May-15 06:00N 43°32' E 007°00'2 3.2
2018-May-15 05:30N 43°30' E 007°00'23217.9
2018-May-14 16:31N 41°23' E 002°37'220.0
2018-May-14 16:26N 41°22' E 002°34'820.0
2018-May-14 16:00N 41°19' E 002°24'1019.4
2018-May-14 15:31N 41°15' E 002°12'611.3
2018-May-14 15:00N 41°21' E 002°10'1 1.7
2018-May-14 14:29N 41°22' E 002°11'0 0.0
2018-May-14 13:59N 41°22' E 002°11'0 0.0
2018-May-14 13:29N 41°22' E 002°11'0 0.0
2018-May-14 12:59N 41°22' E 002°11'0 0.0
2018-May-14 12:29N 41°22' E 002°11'0 0.0
2018-May-14 11:53N 41°22' E 002°11'0 0.0
2018-May-14 11:29N 41°22' E 002°11'0 0.0
2018-May-14 10:59N 41°22' E 002°11'0 0.0
2018-May-14 10:29N 41°22' E 002°11'0 0.0
2018-May-14 09:59N 41°22' E 002°11'0 0.0
2018-May-14 09:29N 41°22' E 002°11'0 0.0
2018-May-14 08:59N 41°22' E 002°11'0 0.0
2018-May-14 08:29N 41°22' E 002°11'0 0.0
2018-May-14 07:59N 41°22' E 002°11'0 0.0
2018-May-14 07:29N 41°22' E 002°11'0 0.0
2018-May-14 06:59N 41°22' E 002°11'0 0.0
2018-May-14 06:29N 41°22' E 002°11'0 0.0
2018-May-14 05:59N 41°22' E 002°11'0 0.0
2018-May-14 05:29N 41°22' E 002°11'0 0.0
2018-May-14 04:59N 41°22' E 002°11'0 0.0
2018-May-14 04:29N 41°22' E 002°11'0 0.0
2018-May-14 03:59N 41°22' E 002°11'0 0.8
2018-May-14 03:30N 41°21' E 002°11'4 7.7
2018-May-14 03:00N 41°18' E 002°11'714.1
2018-May-14 02:30N 41°12' E 002°17'815.6
2018-May-14 02:00N 41°08' E 002°26'32118.9
2018-May-13 09:00N 38°36' E 008°34'2321.0
2018-May-13 07:53N 38°35' E 009°04'821.0
2018-May-13 07:30N 38°34' E 009°14'1020.9
2018-May-13 07:00N 38°33' E 009°27'1120.9
2018-May-13 06:29N 38°33' E 009°41'1021.0
2018-May-13 06:00N 38°32' E 009°54'2120.9
2018-May-13 05:00N 38°31' E 010°21'3320.5
2018-May-13 03:23N 38°30' E 011°03'6020.7
2018-May-13 00:27N 38°25' E 012°20'2420.3
2018-May-12 23:17N 38°25' E 012°51'519.8
2018-May-12 23:00N 38°25' E 012°58'917.4
2018-May-12 22:30N 38°25' E 013°09'917.6
2018-May-12 21:59N 38°24' E 013°20'817.4
2018-May-12 21:30N 38°25' E 013°31'917.2
2018-May-12 21:00N 38°23' E 013°42'  
Track history (hours):
 
Tides and Currents Weather Stations Pressure Air Temp Water Temp Dewpoint Dewpoint Depression Visibility Wind Speed Wind Dir Waves Ship Positions

Vision of The Seas

Operator: Royal Caribbean Cruises Ltd

Last reported at 2018-May-22 21:00 UTC. Time now 2018-May-23 11:10 UTC.
Position N 36°06' E 023°24'.

Type: Passenger vessel. MMSI: 311321000.

Wind from 010 at 10 knots

Barometer 1013.0 mb
Air temperature 20.0 ° C
Dewpoint 20.0 ° C
Water temperature 20.0 ° C

Date/timePositionNaut miles runAvg speedWind from/ knotsBaromVisibWave heightAir tempDewpointWater temp
2018-May-22 21:00N 36°06' E 023°24'4414.7 010 / 101013.0 20.020.020.0
2018-May-22 18:00N 36°12' E 024°18'62 2.7 040 / 101012.010.8 21.021.021.0
2018-May-21 18:48N 37°06' E 024°57'3 8.7
2018-May-21 18:30N 37°08' E 024°58'1 2.8
2018-May-21 18:01N 37°09' E 024°59'2 4.7
2018-May-21 17:30N 37°11' E 025°00'5 9.8
2018-May-21 17:00N 37°16' E 025°03'510.7
2018-May-21 16:30N 37°21' E 025°06'510.3
2018-May-21 16:00N 37°25' E 025°09'5 9.1
2018-May-21 15:30N 37°27' E 025°14'4 5.2
2018-May-21 14:43N 37°28' E 025°19'0 0.0
2018-May-21 14:25N 37°28' E 025°19'0 0.0
2018-May-21 13:49N 37°28' E 025°19'0 0.0
2018-May-21 13:25N 37°28' E 025°19'0 0.0
2018-May-21 12:49N 37°28' E 025°19'0 0.0
2018-May-21 12:19N 37°28' E 025°19'0 0.0
2018-May-21 11:55N 37°28' E 025°19'0 0.0
2018-May-21 11:19N 37°28' E 025°19'0 0.0
2018-May-21 10:55N 37°28' E 025°19'0 0.0
2018-May-21 10:25N 37°28' E 025°19'0 0.0
2018-May-21 09:55N 37°28' E 025°19'0 0.0
2018-May-21 09:25N 37°28' E 025°19'0 0.0
2018-May-21 08:49N 37°28' E 025°19'0 0.0
2018-May-21 08:25N 37°28' E 025°19'0 0.0
2018-May-21 07:55N 37°28' E 025°19'0 0.0
2018-May-21 07:19N 37°28' E 025°19'0 0.0
2018-May-21 06:55N 37°28' E 025°19'0 0.0
2018-May-21 06:25N 37°28' E 025°19'0 0.0
2018-May-21 05:55N 37°28' E 025°19'0 0.0
2018-May-21 05:25N 37°28' E 025°19'0 0.0
2018-May-21 04:55N 37°28' E 025°19'0 0.0
2018-May-21 04:25N 37°28' E 025°19'0 0.0
2018-May-21 03:55N 37°28' E 025°19'0 0.0
2018-May-21 03:24N 37°28' E 025°19'1 3.3
2018-May-21 02:59N 37°27' E 025°18'511.0
2018-May-21 02:30N 37°27' E 025°11'1211.3
2018-May-21 01:29N 37°20' E 024°60'611.9
2018-May-21 01:00N 37°19' E 024°53'54 8.4
2018-May-20 18:32N 37°22' E 023°45'111.4
2018-May-20 18:28N 37°23' E 023°45'711.4
2018-May-20 17:52N 37°30' E 023°44'411.5
2018-May-20 17:30N 37°34' E 023°43'611.4
2018-May-20 17:01N 37°40' E 023°42'611.3
2018-May-20 16:30N 37°45' E 023°39'611.1
2018-May-20 16:00N 37°50' E 023°37'612.0
2018-May-20 15:31N 37°56' E 023°37'1 2.5
2018-May-20 15:00N 37°56' E 023°38'0 0.0
2018-May-20 14:30N 37°56' E 023°38'0 0.0
2018-May-20 14:00N 37°56' E 023°38'0 0.0
2018-May-20 13:30N 37°56' E 023°38'0 0.0
2018-May-20 13:00N 37°56' E 023°38'0 0.0
2018-May-20 12:30N 37°56' E 023°38'0 0.0
2018-May-20 12:00N 37°56' E 023°38'0 0.0
2018-May-20 11:30N 37°56' E 023°38'0 0.0
2018-May-20 11:00N 37°56' E 023°38'0 0.0
2018-May-20 10:30N 37°56' E 023°38'0 0.0
2018-May-20 10:00N 37°56' E 023°38'0 0.0
2018-May-20 09:30N 37°56' E 023°38'0 0.0
2018-May-20 09:00N 37°56' E 023°38'0 0.0
2018-May-20 08:30N 37°56' E 023°38'0 0.0
2018-May-20 08:00N 37°56' E 023°38'0 0.0
2018-May-20 07:30N 37°56' E 023°38'0 0.0
2018-May-20 07:00N 37°56' E 023°38'0 0.0
2018-May-20 06:30N 37°56' E 023°38'0 0.0
2018-May-20 06:00N 37°56' E 023°38'0 0.0
2018-May-20 05:30N 37°56' E 023°38'0 0.0
2018-May-20 05:00N 37°56' E 023°38'0 0.0
2018-May-20 04:30N 37°56' E 023°38'0 0.0
2018-May-20 04:00N 37°56' E 023°38'0 0.0
2018-May-20 03:30N 37°56' E 023°38'0 0.0
2018-May-20 03:00N 37°56' E 023°38'0 0.0
2018-May-20 02:30N 37°56' E 023°38'0 0.2
2018-May-20 02:00N 37°56' E 023°38'2 4.1
2018-May-20 01:30N 37°55' E 023°36'612.5
2018-May-20 01:00N 37°50' E 023°40'713.9
2018-May-20 00:30N 37°43' E 023°44'713.8
2018-May-20 00:00N 37°37' E 023°47'714.4
2018-May-19 23:30N 37°30' E 023°47'714.4
2018-May-19 23:00N 37°22' E 023°47'814.5
2018-May-19 22:29N 37°15' E 023°45'37612.4
2018-May-18 16:11N 37°45' E 015°53'1314.4
2018-May-18 15:15N 37°49' E 015°36'1014.0
2018-May-18 14:33N 37°58' E 015°33'115.9
2018-May-18 14:29N 37°59' E 015°33'817.2
2018-May-18 14:00N 38°07' E 015°35'816.3
2018-May-18 13:29N 38°15' E 015°39'714.2
2018-May-18 13:01N 38°22' E 015°39'815.7
2018-May-18 12:31N 38°29' E 015°35'815.5
2018-May-18 12:00N 38°36' E 015°31'815.3
2018-May-18 11:30N 38°43' E 015°27'815.5
2018-May-18 11:00N 38°50' E 015°23'14615.2
2018-May-18 01:24N 40°26' E 012°60'180 6.4
2018-May-16 21:22N 42°37' E 010°15'1616.6
2018-May-16 20:24N 42°48' E 009°59'717.6
2018-May-16 20:00N 42°55' E 010°02'917.7
2018-May-16 19:31N 43°04' E 010°03'918.0
2018-May-16 19:01N 43°13' E 010°05'917.8
2018-May-16 18:30N 43°22' E 010°06'715.3
2018-May-16 18:01N 43°29' E 010°08'713.4
2018-May-16 17:30N 43°32' E 010°17'1 2.8
2018-May-16 16:58N 43°34' E 010°18'0 0.0
2018-May-16 16:28N 43°34' E 010°18'0 0.0
2018-May-16 15:58N 43°34' E 010°18'0 0.0
2018-May-16 15:28N 43°34' E 010°18'0 0.0
2018-May-16 14:58N 43°34' E 010°18'0 0.0
2018-May-16 14:28N 43°34' E 010°18'0 0.0
2018-May-16 13:55N 43°34' E 010°18'0 0.0
2018-May-16 13:28N 43°34' E 010°18'0 0.0
2018-May-16 12:58N 43°34' E 010°18'0 0.0
2018-May-16 12:28N 43°34' E 010°18'0 0.0
2018-May-16 11:58N 43°34' E 010°18'0 0.0
2018-May-16 11:28N 43°34' E 010°18'0 0.0
2018-May-16 10:58N 43°34' E 010°18'0 0.0
2018-May-16 10:28N 43°34' E 010°18'0 0.0
2018-May-16 09:55N 43°34' E 010°18'0 0.0
2018-May-16 09:25N 43°34' E 010°18'0 0.0
2018-May-16 08:58N 43°34' E 010°18'0 0.0
2018-May-16 08:28N 43°34' E 010°18'0 0.0
2018-May-16 07:58N 43°34' E 010°18'0 0.0
2018-May-16 07:28N 43°34' E 010°18'0 0.0
2018-May-16 06:58N 43°34' E 010°18'0 0.0
2018-May-16 06:28N 43°34' E 010°18'0 0.0
2018-May-16 05:58N 43°34' E 010°18'0 0.0
2018-May-16 05:25N 43°34' E 010°18'0 0.1
2018-May-16 04:57N 43°33' E 010°18'0 0.0
2018-May-16 04:29N 43°33' E 010°18'2 4.7
2018-May-16 04:00N 43°32' E 010°16'611.6
2018-May-16 03:30N 43°29' E 010°09'713.1
2018-May-16 03:00N 43°31' E 010°00'713.2
2018-May-16 02:30N 43°32' E 009°51'713.2
2018-May-16 02:00N 43°32' E 009°42'713.2
2018-May-16 01:30N 43°32' E 009°33'713.0
2018-May-16 01:00N 43°32' E 009°24'612.8
2018-May-16 00:30N 43°32' E 009°15'612.9
2018-May-16 00:00N 43°32' E 009°06'612.9
2018-May-15 23:30N 43°31' E 008°58'612.9
2018-May-15 23:00N 43°31' E 008°49'613.0
2018-May-15 22:30N 43°30' E 008°40'612.9
2018-May-15 22:00N 43°30' E 008°31'713.1
2018-May-15 21:30N 43°30' E 008°22'4513.1
2018-May-15 18:04N 43°29' E 007°20'113.2
2018-May-15 18:00N 43°29' E 007°19'612.9
2018-May-15 17:30N 43°29' E 007°10'612.6
2018-May-15 17:00N 43°30' E 007°01'2 4.9
2018-May-15 16:30N 43°32' E 007°00'0 0.1
2018-May-15 15:59N 43°32' E 007°00'0 0.0
2018-May-15 15:29N 43°32' E 007°00'0 0.0
2018-May-15 14:59N 43°32' E 007°00'0 0.0
2018-May-15 14:29N 43°32' E 007°00'0 0.0
2018-May-15 13:59N 43°32' E 007°00'0 0.0
2018-May-15 13:20N 43°32' E 007°00'0 0.1
2018-May-15 12:50N 43°32' E 007°00'0 0.1
2018-May-15 12:20N 43°32' E 007°00'0 0.0
2018-May-15 11:50N 43°32' E 007°00'0 0.0
2018-May-15 11:23N 43°32' E 007°00'0 0.1
2018-May-15 10:56N 43°32' E 007°00'0 0.1
2018-May-15 10:23N 43°32' E 007°00'0 0.0
2018-May-15 09:56N 43°32' E 007°00'0 0.0
2018-May-15 09:26N 43°32' E 007°00'0 0.1
2018-May-15 08:59N 43°32' E 007°00'0 0.0
2018-May-15 08:29N 43°32' E 007°00'0 0.1
2018-May-15 07:56N 43°32' E 007°00'0 0.1
2018-May-15 07:26N 43°32' E 007°00'0 0.0
2018-May-15 06:56N 43°32' E 007°01'0 0.0
2018-May-15 06:29N 43°32' E 007°01'0 0.1
2018-May-15 06:00N 43°32' E 007°00'2 3.2
2018-May-15 05:30N 43°30' E 007°00'23217.9
2018-May-14 16:31N 41°23' E 002°37'220.0
2018-May-14 16:26N 41°22' E 002°34'820.0
2018-May-14 16:00N 41°19' E 002°24'1019.4
2018-May-14 15:31N 41°15' E 002°12'611.3
2018-May-14 15:00N 41°21' E 002°10'1 1.7
2018-May-14 14:29N 41°22' E 002°11'0 0.0
2018-May-14 13:59N 41°22' E 002°11'0 0.0
2018-May-14 13:29N 41°22' E 002°11'0 0.0
2018-May-14 12:59N 41°22' E 002°11'0 0.0
2018-May-14 12:29N 41°22' E 002°11'0 0.0
2018-May-14 11:53N 41°22' E 002°11'0 0.0
2018-May-14 11:29N 41°22' E 002°11'0 0.0
2018-May-14 10:59N 41°22' E 002°11'0 0.0
2018-May-14 10:29N 41°22' E 002°11'0 0.0
2018-May-14 09:59N 41°22' E 002°11'0 0.0
2018-May-14 09:29N 41°22' E 002°11'0 0.0
2018-May-14 08:59N 41°22' E 002°11'0 0.0
2018-May-14 08:29N 41°22' E 002°11'0 0.0
2018-May-14 07:59N 41°22' E 002°11'0 0.0
2018-May-14 07:29N 41°22' E 002°11'0 0.0
2018-May-14 06:59N 41°22' E 002°11'0 0.0
2018-May-14 06:29N 41°22' E 002°11'0 0.0
2018-May-14 05:59N 41°22' E 002°11'0 0.0
2018-May-14 05:29N 41°22' E 002°11'0 0.0
2018-May-14 04:59N 41°22' E 002°11'0 0.0
2018-May-14 04:29N 41°22' E 002°11'0 0.0
2018-May-14 03:59N 41°22' E 002°11'0 0.8
2018-May-14 03:30N 41°21' E 002°11'4 7.7
2018-May-14 03:00N 41°18' E 002°11'714.1
2018-May-14 02:30N 41°12' E 002°17'815.6
2018-May-14 02:00N 41°08' E 002°26'32118.9
2018-May-13 09:00N 38°36' E 008°34'2321.0
2018-May-13 07:53N 38°35' E 009°04'821.0
2018-May-13 07:30N 38°34' E 009°14'1020.9
2018-May-13 07:00N 38°33' E 009°27'1120.9
2018-May-13 06:29N 38°33' E 009°41'1021.0
2018-May-13 06:00N 38°32' E 009°54'2120.9
2018-May-13 05:00N 38°31' E 010°21'3320.5
2018-May-13 03:23N 38°30' E 011°03'6020.7
2018-May-13 00:27N 38°25' E 012°20'2420.3
2018-May-12 23:17N 38°25' E 012°51'519.8
2018-May-12 23:00N 38°25' E 012°58'917.4
2018-May-12 22:30N 38°25' E 013°09'917.6
2018-May-12 21:59N 38°24' E 013°20'817.4
2018-May-12 21:30N 38°25' E 013°31'917.2
2018-May-12 21:00N 38°23' E 013°42'  

Dump ship's entire track history